Time;durP1;ratioP1;P1;durP2;ratioP2;P2;SDS_P1;SDS_P2;PMS_P1;PMS_P2;Temp;Humidity;BMP_temperature;BMP_pressure;BME280_temperature;BME280_humidity;BME280_pressure;Samples;Min_cycle;Max_cycle;Signal;HPM_P1;HPM_P2
2022/05/05 00:00:14;;;;;;;12.65;7.63;;;9.70;99.90;;;;;;5007659;28;20046;-73
2022/05/05 00:02:40;;;;;;;13.30;7.75;;;9.70;99.90;;;;;;5030168;28;20052;-73
2022/05/05 00:05:06;;;;;;;14.93;7.85;;;9.70;99.90;;;;;;5032194;28;20057;-73
2022/05/05 00:07:32;;;;;;;14.00;7.75;;;9.70;99.90;;;;;;5026489;28;20041;-73
2022/05/05 00:09:57;;;;;;;13.10;8.07;;;9.70;99.90;;;;;;5024679;28;20500;-73
2022/05/05 00:15:28;;;;;;;12.70;8.10;;;9.60;99.90;;;;;;4985277;28;20053;-73
2022/05/05 00:17:54;;;;;;;13.55;7.53;;;9.60;99.90;;;;;;5002537;28;20069;-73
2022/05/05 00:20:19;;;;;;;15.65;8.65;;;9.60;99.90;;;;;;4997615;28;20057;-73
2022/05/05 00:22:45;;;;;;;13.70;8.50;;;9.50;99.90;;;;;;5059345;28;20374;-73
2022/05/05 00:25:10;;;;;;;15.18;8.32;;;9.50;99.90;;;;;;5039338;28;20041;-72
2022/05/05 00:27:37;;;;;;;13.88;8.77;;;9.50;99.90;;;;;;5038030;28;20061;-72
2022/05/05 00:30:03;;;;;;;13.87;8.17;;;9.50;99.90;;;;;;5039999;28;20135;-74
2022/05/05 00:32:29;;;;;;;16.42;8.73;;;9.50;99.90;;;;;;5040141;28;20048;-74
2022/05/05 00:34:54;;;;;;;13.32;8.32;;;9.50;99.90;;;;;;5036504;28;20041;-73
2022/05/05 00:37:20;;;;;;;14.02;8.30;;;9.50;99.90;;;;;;5010969;28;20483;-73
2022/05/05 00:39:45;;;;;;;14.88;8.65;;;9.40;99.90;;;;;;5032620;28;20049;-74
2022/05/05 00:42:20;;;;;;;13.75;8.02;;;9.30;99.90;;;;;;5030406;28;20099;-74
2022/05/05 00:44:46;;;;;;;11.77;8.32;;;9.20;99.90;;;;;;5045357;28;20497;-73
2022/05/05 00:47:16;;;;;;;15.35;8.70;;;9.10;99.90;;;;;;5083849;28;20063;-74
2022/05/05 00:49:45;;;;;;;13.20;9.48;;;9.10;99.90;;;;;;5038779;28;20058;-74
2022/05/05 00:52:11;;;;;;;16.38;8.55;;;9.20;99.90;;;;;;5046664;28;20041;-73
2022/05/05 00:54:38;;;;;;;14.57;8.43;;;9.20;99.90;;;;;;5073912;28;20046;-74
2022/05/05 00:57:05;;;;;;;13.05;8.45;;;9.10;99.90;;;;;;5010912;28;20124;-74
2022/05/05 00:59:30;;;;;;;17.13;8.73;;;9.10;99.90;;;;;;5042485;28;20042;-74
2022/05/05 01:01:56;;;;;;;13.13;8.50;;;9.10;99.90;;;;;;5030898;28;20040;-74
2022/05/05 01:04:22;;;;;;;14.55;8.25;;;9.10;99.90;;;;;;5032890;28;20038;-74
2022/05/05 01:06:47;;;;;;;13.18;8.80;;;9.20;99.90;;;;;;5027655;28;20045;-74
2022/05/05 01:09:13;;;;;;;17.63;9.00;;;9.20;99.90;;;;;;5029043;28;20041;-74
2022/05/05 01:11:38;;;;;;;13.65;9.18;;;9.20;99.90;;;;;;5017014;28;20049;-74
2022/05/05 01:14:04;;;;;;;12.50;8.40;;;9.10;99.90;;;;;;5033735;28;20049;-74
2022/05/05 01:16:31;;;;;;;14.02;8.80;;;9.10;99.90;;;;;;5032572;28;20037;-74
2022/05/05 01:18:56;;;;;;;15.18;8.88;;;9.10;99.90;;;;;;5034181;28;20051;-74
2022/05/05 01:21:22;;;;;;;15.00;8.38;;;9.10;99.90;;;;;;5034140;28;20040;-74
2022/05/05 01:23:48;;;;;;;13.40;8.68;;;9.10;99.90;;;;;;5075148;28;20049;-74
2022/05/05 01:28:58;;;;;;;15.85;8.68;;;9.10;99.90;;;;;;5062580;28;20666;-75
2022/05/05 01:31:23;;;;;;;13.80;8.75;;;9.10;99.90;;;;;;5030584;28;20163;-74
2022/05/05 01:33:49;;;;;;;16.95;9.18;;;9.00;99.90;;;;;;5029809;28;20128;-74
2022/05/05 01:36:15;;;;;;;15.10;9.15;;;9.00;99.90;;;;;;5029913;28;20068;-74
2022/05/05 01:38:42;;;;;;;15.18;8.55;;;9.00;99.90;;;;;;5030857;28;20046;-74
2022/05/05 01:41:10;;;;;;;13.20;8.40;;;9.00;99.90;;;;;;5050886;28;20072;-74
2022/05/05 01:43:39;;;;;;;14.48;9.48;;;9.00;99.90;;;;;;5052370;28;20075;-74
2022/05/05 01:46:06;;;;;;;13.25;9.13;;;9.00;99.90;;;;;;5031968;28;20048;-74
2022/05/05 01:48:32;;;;;;;15.23;8.98;;;9.00;99.90;;;;;;5024060;28;20046;-74
2022/05/05 01:50:58;;;;;;;12.40;8.48;;;9.00;99.90;;;;;;5017887;28;20798;-74
2022/05/05 01:53:24;;;;;;;16.63;8.90;;;9.00;99.90;;;;;;5050621;28;20040;-74
2022/05/05 01:55:49;;;;;;;13.30;8.68;;;9.00;99.90;;;;;;5041799;28;20492;-74
2022/05/05 01:58:15;;;;;;;12.63;9.00;;;9.00;99.90;;;;;;5021349;28;20132;-74
2022/05/05 02:00:41;;;;;;;16.00;9.38;;;9.00;99.90;;;;;;5027270;28;20052;-74
2022/05/05 02:03:12;;;;;;;15.73;8.95;;;9.00;99.90;;;;;;5032634;28;20046;-73
2022/05/05 02:05:47;;;;;;;12.60;9.07;;;8.90;99.90;;;;;;5039519;28;20052;-74
2022/05/05 02:08:13;;;;;;;13.68;9.25;;;8.90;99.90;;;;;;5028981;28;20125;-74
2022/05/05 02:10:39;;;;;;;12.40;9.55;;;8.80;99.90;;;;;;5019586;28;20125;-74
2022/05/05 02:13:06;;;;;;;14.52;9.75;;;8.70;99.90;;;;;;5022789;28;20120;-74
2022/05/05 02:15:34;;;;;;;15.05;9.43;;;8.60;99.90;;;;;;5015607;28;20046;-74
2022/05/05 02:18:08;;;;;;;14.77;10.13;;;8.60;99.90;;;;;;5033018;28;20115;-74
2022/05/05 02:20:33;;;;;;;16.77;9.73;;;8.50;99.90;;;;;;5064869;28;20045;-74
2022/05/05 02:22:59;;;;;;;15.68;9.93;;;8.50;99.90;;;;;;5013304;28;20049;-74
2022/05/05 02:25:24;;;;;;;17.63;10.02;;;8.40;99.90;;;;;;5043946;28;20029;-74
2022/05/05 02:27:52;;;;;;;14.32;10.82;;;8.40;99.90;;;;;;5027238;28;20052;-74
2022/05/05 02:30:23;;;;;;;15.48;10.50;;;8.40;99.90;;;;;;5009469;28;20583;-74
2022/05/05 02:32:50;;;;;;;14.88;9.82;;;8.30;99.90;;;;;;5015747;28;20038;-74
2022/05/05 02:35:16;;;;;;;14.47;9.93;;;8.30;99.90;;;;;;5009391;28;20045;-74
2022/05/05 02:40:27;;;;;;;14.57;9.68;;;8.10;99.90;;;;;;5026414;28;20044;-73
2022/05/05 02:42:55;;;;;;;12.85;10.30;;;8.00;99.90;;;;;;5041073;28;20480;-75
2022/05/05 02:45:22;;;;;;;17.50;10.43;;;8.00;99.90;;;;;;5039222;28;20059;-74
2022/05/05 02:47:49;;;;;;;15.90;11.00;;;7.90;99.90;;;;;;5018454;28;20048;-74
2022/05/05 02:50:18;;;;;;;15.77;11.02;;;7.90;99.90;;;;;;5043878;28;20663;-73
2022/05/05 02:52:43;;;;;;;14.18;10.30;;;7.90;99.90;;;;;;5031469;28;20036;-74
2022/05/05 02:55:09;;;;;;;13.50;10.25;;;7.90;99.90;;;;;;5027844;28;20042;-74
2022/05/05 02:57:35;;;;;;;18.90;11.27;;;7.90;99.90;;;;;;5027393;28;20056;-74
2022/05/05 03:00:01;;;;;;;14.55;10.63;;;7.90;99.90;;;;;;5038852;28;20036;-74
2022/05/05 03:02:26;;;;;;;14.25;11.07;;;7.90;99.90;;;;;;5015234;28;20050;-71
2022/05/05 03:04:52;;;;;;;20.00;11.98;;;7.80;99.90;;;;;;5039002;28;20239;-71
2022/05/05 03:07:18;;;;;;;16.92;11.98;;;7.80;99.90;;;;;;5041223;28;20053;-72
2022/05/05 03:09:44;;;;;;;15.32;11.57;;;7.80;99.90;;;;;;5030055;28;20116;-71
2022/05/05 03:12:10;;;;;;;16.88;13.32;;;7.70;99.90;;;;;;5041253;28;20033;-71
2022/05/05 03:14:37;;;;;;;15.40;13.02;;;7.70;99.90;;;;;;5031484;28;21587;-71
2022/05/05 03:17:03;;;;;;;16.73;12.30;;;7.70;99.90;;;;;;5026618;28;20045;-71
2022/05/05 03:19:29;;;;;;;19.13;12.10;;;7.70;99.90;;;;;;5041326;28;20053;-71
2022/05/05 03:21:55;;;;;;;15.77;12.25;;;7.70;99.90;;;;;;5015348;28;20369;-71
2022/05/05 03:24:20;;;;;;;17.80;12.43;;;7.70;99.90;;;;;;5044268;28;20041;-71
2022/05/05 03:26:46;;;;;;;22.08;12.98;;;7.70;99.90;;;;;;5035415;28;20058;-73
2022/05/05 03:29:12;;;;;;;17.00;12.60;;;7.60;99.90;;;;;;5028721;28;20065;-74
2022/05/05 03:31:37;;;;;;;18.00;12.48;;;7.60;99.90;;;;;;5014559;28;20033;-74
2022/05/05 03:34:04;;;;;;;16.70;12.95;;;7.60;99.90;;;;;;5026963;28;20570;-74
2022/05/05 03:36:30;;;;;;;17.40;13.02;;;7.50;99.90;;;;;;5023527;28;20116;-74
2022/05/05 03:38:55;;;;;;;15.45;12.43;;;7.50;99.90;;;;;;5043489;28;20549;-74
2022/05/05 03:41:21;;;;;;;19.08;12.93;;;7.50;99.90;;;;;;5043440;28;20404;-74
2022/05/05 03:43:47;;;;;;;18.15;12.95;;;7.50;99.90;;;;;;5039254;28;20492;-74
2022/05/05 03:46:13;;;;;;;16.70;12.45;;;7.60;99.90;;;;;;5018821;28;20456;-74
2022/05/05 03:48:38;;;;;;;21.70;13.40;;;7.60;99.90;;;;;;5021931;28;20079;-74
2022/05/05 03:51:04;;;;;;;17.17;13.60;;;7.60;99.90;;;;;;5046639;28;20102;-74
2022/05/05 03:53:30;;;;;;;16.58;13.25;;;7.60;99.90;;;;;;5044496;28;20401;-74
2022/05/05 03:55:56;;;;;;;17.33;13.77;;;7.60;99.90;;;;;;5043821;28;20050;-74
2022/05/05 03:58:22;;;;;;;17.55;14.52;;;7.60;99.90;;;;;;5022949;28;20070;-74
2022/05/05 04:00:47;;;;;;;19.27;13.48;;;7.60;99.90;;;;;;5012244;28;20153;-74
2022/05/05 04:03:31;;;;;;;17.15;13.70;;;7.70;99.90;;;;;;5040243;28;20044;-74
2022/05/05 04:05:57;;;;;;;16.15;14.10;;;7.70;99.90;;;;;;5044183;28;20049;-74
2022/05/05 04:08:23;;;;;;;19.38;14.48;;;7.70;99.90;;;;;;5075247;28;20041;-74
2022/05/05 04:10:51;;;;;;;17.92;14.13;;;7.70;99.90;;;;;;5028892;28;20393;-74
2022/05/05 04:13:18;;;;;;;21.65;14.27;;;7.60;99.90;;;;;;5048155;28;20045;-75
2022/05/05 04:15:44;;;;;;;19.77;15.48;;;7.60;99.90;;;;;;5030310;28;20054;-74
2022/05/05 04:18:09;;;;;;;25.95;15.15;;;7.60;99.90;;;;;;5029864;28;20049;-74
2022/05/05 04:20:35;;;;;;;19.52;14.15;;;7.60;99.90;;;;;;5031210;28;20091;-74
2022/05/05 04:23:01;;;;;;;21.20;15.15;;;7.60;99.90;;;;;;5031058;28;20073;-74
2022/05/05 04:25:26;;;;;;;16.58;14.75;;;7.70;99.90;;;;;;5061741;28;20393;-74
2022/05/05 04:27:52;;;;;;;20.92;14.13;;;7.70;99.90;;;;;;5035546;28;20044;-74
2022/05/05 04:30:18;;;;;;;17.55;14.55;;;7.80;99.90;;;;;;5073900;28;20945;-74
2022/05/05 04:32:44;;;;;;;17.17;14.82;;;7.80;99.90;;;;;;5051576;28;20049;-74
2022/05/05 04:35:10;;;;;;;18.60;15.23;;;7.90;99.90;;;;;;5029848;28;20098;-74
2022/05/05 04:37:36;;;;;;;19.75;14.07;;;7.90;99.90;;;;;;5021456;28;20046;-74
2022/05/05 04:40:02;;;;;;;20.25;15.18;;;8.00;99.90;;;;;;5035741;28;20056;-74
2022/05/05 04:42:28;;;;;;;17.88;14.65;;;8.00;99.90;;;;;;5032808;28;20041;-74
2022/05/05 04:44:54;;;;;;;19.92;15.20;;;8.00;99.90;;;;;;5034050;28;20078;-74
2022/05/05 04:47:19;;;;;;;21.05;14.40;;;8.10;99.90;;;;;;5040941;28;20041;-74
2022/05/05 04:49:45;;;;;;;22.02;14.80;;;8.10;99.90;;;;;;5027016;28;20046;-74
2022/05/05 04:52:10;;;;;;;19.13;15.30;;;8.20;99.90;;;;;;5010995;28;20500;-74
2022/05/05 04:54:36;;;;;;;21.02;15.05;;;8.20;99.90;;;;;;5011084;28;20056;-74
2022/05/05 04:57:02;;;;;;;15.60;13.68;;;8.30;99.90;;;;;;5017091;28;20509;-74
2022/05/05 04:59:28;;;;;;;22.20;15.00;;;8.30;99.90;;;;;;5063807;28;20128;-74
2022/05/05 05:01:53;;;;;;;20.73;15.50;;;8.40;99.90;;;;;;5031789;28;20041;-74
2022/05/05 05:04:19;;;;;;;17.73;15.75;;;8.50;99.90;;;;;;5038807;28;20040;-74
2022/05/05 05:06:44;;;;;;;19.50;15.63;;;8.50;99.90;;;;;;5026556;28;20571;-74
2022/05/05 05:09:10;;;;;;;19.08;16.05;;;8.60;99.90;;;;;;5009410;28;20117;-74
2022/05/05 05:11:36;;;;;;;21.10;16.35;;;8.50;99.90;;;;;;5038133;28;20037;-73
2022/05/05 05:14:02;;;;;;;21.63;15.82;;;8.70;99.90;;;;;;5028359;28;20450;-74
2022/05/05 05:16:27;;;;;;;20.88;16.25;;;8.70;99.90;;;;;;5027079;28;20041;-74
2022/05/05 05:18:54;;;;;;;19.95;16.08;;;8.70;99.90;;;;;;5029925;28;20049;-74
2022/05/05 05:21:22;;;;;;;22.38;15.77;;;8.80;99.90;;;;;;5030840;28;20041;-75
2022/05/05 05:23:48;;;;;;;25.92;15.95;;;8.90;99.90;;;;;;5051826;28;20403;-74
2022/05/05 05:26:14;;;;;;;22.65;16.77;;;9.00;99.90;;;;;;5028450;28;20137;-74
2022/05/05 05:28:40;;;;;;;21.45;16.80;;;9.00;99.90;;;;;;5023858;28;20119;-73
2022/05/05 05:31:06;;;;;;;20.27;15.93;;;9.10;99.90;;;;;;5037897;28;20052;-74
2022/05/05 05:33:32;;;;;;;25.65;15.60;;;9.10;99.90;;;;;;5032438;28;20050;-74
2022/05/05 05:35:58;;;;;;;24.63;16.67;;;9.10;99.90;;;;;;5028990;28;20049;-74
2022/05/05 05:38:23;;;;;;;25.02;16.40;;;9.20;99.90;;;;;;5037232;28;20033;-74
2022/05/05 05:40:49;;;;;;;19.98;16.23;;;9.30;99.90;;;;;;5042056;28;20131;-74
2022/05/05 05:43:15;;;;;;;22.38;15.90;;;9.30;99.90;;;;;;5037103;28;20053;-74
2022/05/05 05:45:41;;;;;;;22.33;15.43;;;9.50;99.90;;;;;;5026148;28;20038;-74
2022/05/05 05:48:08;;;;;;;19.17;15.52;;;9.60;99.90;;;;;;5013114;28;20071;-75
2022/05/05 05:50:34;;;;;;;19.83;15.75;;;9.70;99.90;;;;;;5024605;28;20103;-75
2022/05/05 05:53:00;;;;;;;18.38;16.10;;;9.70;99.90;;;;;;5026417;28;20038;-78
2022/05/05 05:55:26;;;;;;;22.50;15.50;;;9.80;99.90;;;;;;5074624;28;20056;-73
2022/05/05 05:57:52;;;;;;;18.35;14.32;;;9.80;99.90;;;;;;5038857;28;20248;-74
2022/05/05 06:00:18;;;;;;;18.58;15.88;;;9.90;99.90;;;;;;5024132;28;20037;-75
2022/05/05 06:05:29;;;;;;;20.10;14.43;;;10.10;99.90;;;;;;5068017;28;20052;-75
2022/05/05 06:07:59;;;;;;;20.25;15.13;;;10.20;99.90;;;;;;5030440;28;20049;-75
2022/05/05 06:10:25;;;;;;;22.98;15.00;;;10.30;99.90;;;;;;5028169;28;20042;-75
2022/05/05 06:12:51;;;;;;;17.90;14.65;;;10.40;99.90;;;;;;5038639;28;20120;-74
2022/05/05 06:15:17;;;;;;;19.95;15.30;;;10.40;99.90;;;;;;5049883;28;20545;-75
2022/05/05 06:17:43;;;;;;;18.95;15.60;;;10.50;99.90;;;;;;5063667;28;20057;-75
2022/05/05 06:20:09;;;;;;;20.23;15.07;;;10.60;99.90;;;;;;5040154;28;20098;-75
2022/05/05 06:22:35;;;;;;;21.77;15.25;;;10.70;99.90;;;;;;5027009;28;20049;-75
2022/05/05 06:25:02;;;;;;;19.88;14.50;;;10.80;99.90;;;;;;5043377;28;20045;-75
2022/05/05 06:27:27;;;;;;;20.67;14.80;;;10.90;99.90;;;;;;5028413;28;20175;-75
2022/05/05 06:29:53;;;;;;;18.77;13.82;;;10.90;99.90;;;;;;5024808;28;20631;-75
2022/05/05 06:32:18;;;;;;;22.38;14.82;;;11.00;99.90;;;;;;5028208;28;20045;-75
2022/05/05 06:34:44;;;;;;;22.33;13.70;;;11.10;99.90;;;;;;5028289;28;20037;-75
2022/05/05 06:37:10;;;;;;;18.10;13.40;;;11.20;99.90;;;;;;5021162;28;20257;-75
2022/05/05 06:39:36;;;;;;;19.90;13.63;;;11.30;99.90;;;;;;5024436;28;20057;-75
2022/05/05 06:42:01;;;;;;;20.42;14.55;;;11.40;99.90;;;;;;5049912;28;20052;-75
2022/05/05 06:44:27;;;;;;;21.73;14.57;;;11.50;99.90;;;;;;5022028;28;20798;-75
2022/05/05 06:46:53;;;;;;;16.00;13.82;;;11.60;99.90;;;;;;5045793;28;20040;-75
2022/05/05 06:49:22;;;;;;;21.05;13.95;;;11.70;99.90;;;;;;5045383;28;20120;-75
2022/05/05 06:51:49;;;;;;;21.20;15.05;;;11.70;99.90;;;;;;5054674;28;20045;-75
2022/05/05 06:54:17;;;;;;;20.58;14.20;;;11.80;99.90;;;;;;5027292;28;20045;-75
2022/05/05 06:56:43;;;;;;;24.35;15.52;;;11.90;99.90;;;;;;5025643;28;20050;-74
2022/05/05 06:59:08;;;;;;;20.77;15.10;;;12.00;99.90;;;;;;5026967;28;20046;-74
2022/05/05 07:01:52;;;;;;;20.13;14.95;;;12.00;99.90;;;;;;5032285;28;20033;-74
2022/05/05 07:07:07;;;;;;;22.13;13.60;;;12.20;99.90;;;;;;5021569;28;20136;-74
2022/05/05 07:12:18;;;;;;;21.80;14.05;;;12.40;99.90;;;;;;5041442;28;20647;-74
2022/05/05 07:14:44;;;;;;;20.95;13.88;;;12.50;99.90;;;;;;5076177;28;20106;-81
2022/05/05 07:17:10;;;;;;;18.15;12.35;;;12.60;99.90;;;;;;5076355;28;20079;-74
2022/05/05 07:19:36;;;;;;;18.88;12.65;;;12.70;99.90;;;;;;5048546;28;20052;-75
2022/05/05 07:22:06;;;;;;;17.13;11.23;;;12.80;99.90;;;;;;5059753;28;20053;-72
2022/05/05 07:24:31;;;;;;;16.85;10.13;;;12.90;99.90;;;;;;5022933;28;20145;-74
2022/05/05 07:26:58;;;;;;;15.13;9.93;;;12.90;99.90;;;;;;5032129;28;20140;-75
2022/05/05 07:29:23;;;;;;;16.88;9.98;;;13.00;99.90;;;;;;5035125;28;20043;-74
2022/05/05 07:31:49;;;;;;;17.38;9.35;;;13.00;99.90;;;;;;5040636;28;20383;-74
2022/05/05 07:34:15;;;;;;;17.75;9.93;;;13.10;99.90;;;;;;5049033;28;20045;-74
2022/05/05 07:36:42;;;;;;;17.80;9.73;;;13.10;99.90;;;;;;5047678;28;20045;-73
2022/05/05 07:39:08;;;;;;;18.73;10.15;;;13.20;99.90;;;;;;5035731;28;20084;-74
2022/05/05 07:41:33;;;;;;;17.83;9.00;;;13.30;99.90;;;;;;5007960;28;20104;-74
2022/05/05 07:44:00;;;;;;;16.27;8.48;;;13.40;99.90;;;;;;5029081;28;20050;-74
2022/05/05 07:46:26;;;;;;;10.60;6.80;;;13.50;99.90;;;;;;5054000;28;20048;-73
2022/05/05 07:48:52;;;;;;;12.80;6.45;;;13.60;99.90;;;;;;5044891;28;20380;-75
2022/05/05 07:51:19;;;;;;;10.35;6.55;;;13.80;99.90;;;;;;5034355;28;20091;-75
2022/05/05 07:54:34;;;;;;;12.57;6.60;;;13.90;99.90;;;;;;5047739;28;20052;-75
2022/05/05 07:56:30;;;;;;;11.07;7.22;;;13.90;98.70;;;;;;5051743;28;20041;-75
2022/05/05 07:58:56;;;;;;;12.82;8.32;;;14.00;99.60;;;;;;5083968;28;20110;-73
2022/05/05 08:01:22;;;;;;;12.13;7.10;;;14.10;99.90;;;;;;5032519;28;20456;-76
2022/05/05 08:03:48;;;;;;;12.40;7.57;;;14.20;98.50;;;;;;5043517;28;20049;-76
2022/05/05 08:06:13;;;;;;;9.93;6.03;;;14.30;99.10;;;;;;5048102;28;20572;-76
2022/05/05 08:08:39;;;;;;;14.60;7.40;;;14.30;97.40;;;;;;5078135;28;20048;-72
2022/05/05 08:11:05;;;;;;;15.30;7.78;;;14.30;98.60;;;;;;5074890;28;21668;-74
2022/05/05 08:13:32;;;;;;;17.33;7.43;;;14.40;95.90;;;;;;5064573;28;20088;-74
2022/05/05 08:15:58;;;;;;;12.80;7.13;;;14.40;96.60;;;;;;5049244;28;20045;-74
2022/05/05 08:18:24;;;;;;;13.10;6.90;;;14.50;97.80;;;;;;5051854;28;20090;-75
2022/05/05 08:20:49;;;;;;;9.48;6.43;;;14.60;98.20;;;;;;5046503;28;20034;-74
2022/05/05 08:23:15;;;;;;;13.32;7.63;;;14.60;95.50;;;;;;5035600;28;20046;-75
2022/05/05 08:28:28;;;;;;;11.50;7.18;;;14.70;97.60;;;;;;5037846;28;20049;-75
2022/05/05 08:30:54;;;;;;;11.85;6.57;;;14.90;97.10;;;;;;5058992;28;20202;-72
2022/05/05 08:33:20;;;;;;;14.40;6.88;;;14.90;94.10;;;;;;5060924;28;20048;-70
2022/05/05 08:35:45;;;;;;;11.95;7.55;;;15.00;96.30;;;;;;5037604;28;20040;-69
2022/05/05 08:38:13;;;;;;;11.25;6.70;;;15.00;93.70;;;;;;5039375;28;20075;-71
2022/05/05 08:40:41;;;;;;;14.10;7.70;;;15.10;92.10;;;;;;5072493;28;20041;-72
2022/05/05 08:43:07;;;;;;;12.85;7.78;;;15.10;92.70;;;;;;5077726;28;20484;-72
2022/05/05 08:45:33;;;;;;;12.57;7.55;;;15.10;91.90;;;;;;5032595;28;20090;-74
2022/05/05 08:48:01;;;;;;;14.98;7.45;;;15.20;91.60;;;;;;5035005;28;20437;-71
2022/05/05 08:50:27;;;;;;;17.75;8.88;;;15.20;91.10;;;;;;5069620;28;20045;-73
2022/05/05 08:52:53;;;;;;;13.10;8.45;;;15.20;94.40;;;;;;5031671;28;20084;-74
2022/05/05 08:55:20;;;;;;;10.98;7.22;;;15.40;92.80;;;;;;5050185;28;20503;-73
2022/05/05 08:57:46;;;;;;;13.23;8.30;;;15.40;90.60;;;;;;5052278;28;20115;-73
2022/05/05 09:00:14;;;;;;;10.10;8.38;;;15.50;90.30;;;;;;5046809;28;20484;-74
2022/05/05 09:02:41;;;;;;;16.13;8.50;;;15.50;90.10;;;;;;5046415;28;20080;-75
2022/05/05 09:05:08;;;;;;;12.50;7.88;;;15.50;90.30;;;;;;5049066;28;20049;-74
2022/05/05 09:07:51;;;;;;;11.88;7.75;;;15.60;89.10;;;;;;5049605;28;20041;-74
2022/05/05 09:10:19;;;;;;;9.82;7.40;;;15.70;93.10;;;;;;5051627;28;20045;-74
2022/05/05 09:12:58;;;;;;;10.88;7.47;;;15.80;92.80;;;;;;5045674;28;20045;-74
2022/05/05 09:15:35;;;;;;;11.95;6.68;;;16.00;94.20;;;;;;5050279;28;20061;-73
2022/05/05 09:18:14;;;;;;;10.52;7.25;;;16.10;94.20;;;;;;5050779;28;20084;-75
2022/05/05 09:20:41;;;;;;;11.32;7.90;;;16.20;92.50;;;;;;5050809;28;20072;-75
2022/05/05 09:23:07;;;;;;;9.05;6.55;;;16.20;91.40;;;;;;5045953;28;20099;-75
2022/05/05 09:25:46;;;;;;;11.60;7.18;;;16.20;90.20;;;;;;5052653;28;20041;-72
2022/05/05 09:28:16;;;;;;;10.90;7.70;;;16.40;89.80;;;;;;5083282;28;20556;-75
2022/05/05 09:30:47;;;;;;;11.15;7.30;;;16.40;91.60;;;;;;5052254;28;20451;-74
2022/05/05 09:33:17;;;;;;;12.70;7.78;;;16.50;87.40;;;;;;5078265;28;20392;-74
2022/05/05 09:35:44;;;;;;;10.18;7.00;;;16.60;84.50;;;;;;5049884;28;20410;-75
2022/05/05 09:38:10;;;;;;;10.50;7.05;;;16.60;78.40;;;;;;5051254;28;20480;-74
2022/05/05 09:40:36;;;;;;;8.52;7.05;;;16.60;79.90;;;;;;5052416;28;20044;-76
2022/05/05 09:43:02;;;;;;;10.07;6.78;;;16.60;74.50;;;;;;5046867;28;20045;-73
2022/05/05 09:46:03;;;;;;;9.13;6.43;;;16.60;76.80;;;;;;5049313;28;20044;-74
2022/05/05 09:48:31;;;;;;;12.60;7.45;;;16.60;77.00;;;;;;5049449;28;20585;-76
2022/05/05 09:50:57;;;;;;;8.65;6.10;;;16.60;74.90;;;;;;5050558;28;20045;-75
2022/05/05 10:05:22;;;;;;;8.63;5.70;;;17.10;75.00;;;;;;5041834;28;20060;-74
2022/05/05 10:07:51;;;;;;;8.38;6.20;;;17.10;78.80;;;;;;5061281;28;20485;-77
2022/05/05 10:10:18;;;;;;;8.13;5.60;;;17.10;83.40;;;;;;5022604;28;20056;-76
2022/05/05 10:12:46;;;;;;;8.00;5.10;;;17.20;79.80;;;;;;5053996;28;20131;-78
2022/05/05 10:15:13;;;;;;;7.53;5.13;;;17.30;75.30;;;;;;5030386;28;20037;-79
2022/05/05 10:17:40;;;;;;;9.30;5.55;;;17.40;70.90;;;;;;5030311;28;20037;-85
2022/05/05 10:20:07;;;;;;;8.73;5.05;;;17.40;67.70;;;;;;5028851;28;20086;-77
2022/05/05 10:23:07;;;;;;;7.95;4.47;;;17.50;68.20;;;;;;5047206;28;20056;-83
2022/05/05 10:25:37;;;;;;;7.57;5.20;;;17.40;66.20;;;;;;5037916;28;20041;-86
2022/05/05 10:28:44;;;;;;;9.82;6.55;;;17.50;65.30;;;;;;5075471;28;20049;-80
2022/05/05 10:31:42;;;;;;;7.75;5.22;;;17.50;65.90;;;;;;5027938;28;20045;-79
2022/05/05 10:34:23;;;;;;;7.35;5.75;;;17.50;71.10;;;;;;5013874;28;20052;-79
2022/05/05 10:37:20;;;;;;;9.55;5.93;;;17.40;68.60;;;;;;5030932;28;20048;-76
2022/05/05 10:40:02;;;;;;;7.93;5.90;;;17.50;66.60;;;;;;5004766;28;20049;-78
2022/05/05 10:42:35;;;;;;;9.00;6.53;;;17.50;65.70;;;;;;5030903;28;20496;-77
2022/05/05 10:45:05;;;;;;;7.75;5.78;;;17.50;66.30;;;;;;5044081;28;20040;-80
2022/05/05 10:48:01;;;;;;;9.77;5.90;;;17.60;70.00;;;;;;5026002;28;20109;-79
2022/05/05 10:50:50;;;;;;;11.20;5.85;;;17.80;71.50;;;;;;5033948;28;20087;-80
2022/05/05 10:53:40;;;;;;;9.30;5.70;;;17.90;64.50;;;;;;5024322;28;20423;-78
2022/05/05 10:56:43;;;;;;;10.05;5.95;;;18.10;67.80;;;;;;5044481;28;20132;-81
2022/05/05 10:59:09;;;;;;;8.15;6.05;;;18.10;68.00;;;;;;5014747;28;20041;-85
2022/05/05 11:01:46;;;;;;;8.52;5.60;;;18.20;66.50;;;;;;5062510;28;20061;-82
2022/05/05 11:04:15;;;;;;;7.60;6.30;;;18.20;65.00;;;;;;5068472;28;20034;-80
2022/05/05 11:06:42;;;;;;;10.35;6.35;;;18.20;63.30;;;;;;5040517;28;20234;-81
2022/05/05 11:09:09;;;;;;;10.05;6.20;;;18.10;66.00;;;;;;5073723;28;20041;-81
2022/05/05 11:11:41;;;;;;;9.20;6.25;;;18.10;69.70;;;;;;5048701;28;20405;-80
2022/05/05 11:23:09;;;;;;;9.50;7.10;;;18.50;60.40;;;;;;5026413;28;20053;-80
2022/05/05 11:25:41;;;;;;;12.57;7.55;;;18.50;61.80;;;;;;5026107;28;20073;-80
2022/05/05 11:28:10;;;;;;;10.85;7.50;;;18.50;61.40;;;;;;5027366;28;20060;-81
2022/05/05 11:30:42;;;;;;;11.75;7.25;;;18.50;64.70;;;;;;5049013;28;20666;-80
2022/05/05 11:33:07;;;;;;;11.10;7.43;;;18.60;61.90;;;;;;5049137;28;20501;-79
2022/05/05 11:35:33;;;;;;;11.60;7.00;;;18.60;59.80;;;;;;5060118;28;20131;-78
2022/05/05 11:37:59;;;;;;;10.00;6.53;;;18.70;58.60;;;;;;5066254;28;20051;-78
2022/05/05 11:40:28;;;;;;;7.95;6.10;;;18.70;59.50;;;;;;5066286;28;20047;-77
2022/05/05 11:45:38;;;;;;;9.85;6.15;;;18.90;57.50;;;;;;5095973;28;20420;-77
2022/05/05 11:48:17;;;;;;;10.25;6.30;;;18.90;57.40;;;;;;5068482;28;20051;-78
2022/05/05 11:50:46;;;;;;;8.82;6.35;;;19.00;55.80;;;;;;5068030;28;20037;-77
2022/05/05 11:53:18;;;;;;;9.68;7.10;;;19.00;57.30;;;;;;5049369;28;20041;-78
2022/05/05 11:55:45;;;;;;;10.48;6.70;;;19.00;57.90;;;;;;5048886;28;20045;-76
2022/05/05 12:01:36;;;;;;;11.00;5.90;;;19.10;56.40;;;;;;5049139;28;20053;-77
2022/05/05 12:04:12;;;;;;;9.85;5.93;;;19.40;60.60;;;;;;5046703;28;20258;-76
2022/05/05 12:06:39;;;;;;;11.90;6.55;;;19.60;58.20;;;;;;5062643;28;20037;-77
2022/05/05 12:09:09;;;;;;;11.43;6.10;;;19.60;56.20;;;;;;5052036;28;20046;-77
2022/05/05 12:11:35;;;;;;;12.15;6.18;;;19.60;54.50;;;;;;5036131;28;20131;-76
2022/05/05 12:14:06;;;;;;;8.60;6.50;;;19.60;54.90;;;;;;5038177;28;20037;-77
2022/05/05 12:16:38;;;;;;;8.05;6.13;;;19.60;55.40;;;;;;5036180;28;20053;-77
2022/05/05 12:19:14;;;;;;;11.02;7.35;;;19.70;54.90;;;;;;5049753;28;20037;-76
2022/05/05 12:21:56;;;;;;;9.45;7.38;;;19.70;54.00;;;;;;5050645;28;20072;-78
2022/05/05 12:24:24;;;;;;;10.93;7.38;;;19.60;53.40;;;;;;5077898;28;20045;-78
2022/05/05 12:27:11;;;;;;;10.50;7.35;;;19.60;54.20;;;;;;5050791;28;20187;-77
2022/05/05 12:29:42;;;;;;;10.30;6.85;;;19.50;53.70;;;;;;5047369;28;20060;-78
2022/05/05 12:32:09;;;;;;;10.63;6.88;;;19.50;54.40;;;;;;5051456;28;20041;-78
2022/05/05 12:34:35;;;;;;;12.30;7.03;;;19.60;56.10;;;;;;5049829;28;20041;-78
2022/05/05 12:37:08;;;;;;;8.25;5.82;;;19.70;56.40;;;;;;5050799;28;20049;-79
2022/05/05 12:39:47;;;;;;;9.57;7.03;;;20.00;57.30;;;;;;5050739;28;20060;-78
2022/05/05 12:42:14;;;;;;;11.93;6.50;;;20.20;54.10;;;;;;5051506;28;20045;-77
2022/05/05 12:44:43;;;;;;;9.68;7.40;;;20.20;53.10;;;;;;5050783;28;20053;-79
2022/05/05 12:47:38;;;;;;;10.18;6.47;;;20.30;52.90;;;;;;5081373;22;20044;-78
2022/05/05 12:50:04;;;;;;;19.60;6.72;;;20.30;51.90;;;;;;5090817;28;20107;-79
2022/05/05 13:00:52;;;;;;;10.45;7.10;;;20.20;52.20;;;;;;5095758;28;20047;-79
2022/05/05 13:03:18;;;;;;;8.88;6.30;;;20.20;52.40;;;;;;5093650;28;20047;-79
2022/05/05 13:05:47;;;;;;;8.15;5.82;;;20.30;52.50;;;;;;5093413;28;20032;-79
2022/05/05 13:08:12;;;;;;;8.95;6.18;;;20.50;52.40;;;;;;5090484;28;20052;-80
2022/05/05 13:10:41;;;;;;;7.32;5.53;;;20.60;50.60;;;;;;5088664;28;20050;-78
2022/05/05 13:13:07;;;;;;;7.57;4.90;;;20.70;50.70;;;;;;5098728;28;20044;-79
2022/05/05 13:15:33;;;;;;;9.68;4.55;;;20.80;50.20;;;;;;5106609;28;20062;-79
2022/05/05 13:17:59;;;;;;;8.45;4.43;;;20.90;49.70;;;;;;5078137;28;20399;-79
2022/05/05 13:20:25;;;;;;;7.40;5.40;;;21.00;49.10;;;;;;5102841;28;20491;-81
2022/05/05 13:23:00;;;;;;;12.93;5.57;;;21.00;49.30;;;;;;5089924;28;20036;-80
2022/05/05 13:25:26;;;;;;;11.70;6.40;;;21.20;49.30;;;;;;5093148;28;20119;-79
2022/05/05 13:27:53;;;;;;;10.68;5.55;;;21.30;49.50;;;;;;5091783;28;20048;-79
2022/05/05 13:30:19;;;;;;;13.27;6.03;;;21.40;49.30;;;;;;5090719;28;20453;-79
2022/05/05 13:32:45;;;;;;;10.57;6.73;;;21.50;49.60;;;;;;5102341;28;20818;-80
2022/05/05 13:35:10;;;;;;;9.90;6.72;;;21.40;49.30;;;;;;5110277;28;20039;-79
2022/05/05 13:37:37;;;;;;;10.48;6.53;;;21.10;48.60;;;;;;5095289;28;20028;-79